createdAt,value
2018-03-06T00:00:27.114Z,95688.91
2018-03-06T00:02:55.696Z,95683.95
2018-03-06T00:05:23.268Z,95680.69
2018-03-06T00:07:50.984Z,95680.20
2018-03-06T00:10:18.704Z,95682.48
2018-03-06T00:12:46.988Z,95681.46
2018-03-06T00:15:14.620Z,95684.73
2018-03-06T00:17:42.302Z,95690.30
2018-03-06T00:20:10.212Z,95684.88
2018-03-06T00:22:38.184Z,95681.47
2018-03-06T00:25:05.943Z,95683.30
2018-03-06T00:27:33.642Z,95676.90
2018-03-06T00:30:01.272Z,95675.42
2018-03-06T00:32:28.931Z,95671.87
2018-03-06T00:34:56.535Z,95676.22
2018-03-06T00:37:24.392Z,95680.08
2018-03-06T00:39:52.068Z,95678.39
2018-03-06T00:42:19.944Z,95667.70
2018-03-06T00:44:47.507Z,95672.51
2018-03-06T00:47:15.287Z,95665.69
2018-03-06T00:49:43.080Z,95668.27
2018-03-06T00:52:11.083Z,95666.57
2018-03-06T00:54:39.148Z,95664.44
2018-03-06T00:57:07.068Z,95667.06
2018-03-06T00:59:35.261Z,95666.16
2018-03-06T01:02:02.980Z,95671.98
2018-03-06T01:04:30.747Z,95665.95
2018-03-06T01:06:58.334Z,95665.84
2018-03-06T01:09:26.045Z,95657.39
2018-03-06T01:11:53.632Z,95661.74
2018-03-06T01:14:21.406Z,95653.27
2018-03-06T01:16:49.690Z,95654.16
2018-03-06T01:19:17.392Z,95653.05
2018-03-06T01:21:45.227Z,95647.27
2018-03-06T01:24:12.803Z,95649.84
2018-03-06T01:26:40.601Z,95647.53
2018-03-06T01:29:08.262Z,95649.02
2018-03-06T01:31:35.968Z,95656.02
2018-03-06T01:34:03.778Z,95649.66
2018-03-06T01:36:31.605Z,95650.83
2018-03-06T01:38:59.209Z,95643.64
2018-03-06T01:41:27.549Z,95645.12
2018-03-06T01:43:55.293Z,95640.05
2018-03-06T01:46:23.172Z,95636.40
2018-03-06T01:48:50.802Z,95629.77
2018-03-06T01:51:18.444Z,95631.69
2018-03-06T01:53:46.019Z,95631.75
2018-03-06T01:56:13.568Z,95628.50
2018-03-06T01:58:41.234Z,95624.22
2018-03-06T02:01:09.036Z,95636.81
2018-03-06T02:03:36.834Z,95627.14
2018-03-06T02:06:05.298Z,95628.78
2018-03-06T02:08:33.850Z,95622.20
2018-03-06T02:11:02.509Z,95619.66
2018-03-06T02:13:30.115Z,95616.88
2018-03-06T02:15:58.658Z,95618.92
2018-03-06T02:18:26.384Z,95613.56
2018-03-06T02:20:54.057Z,95614.67
2018-03-06T02:23:22.413Z,95606.99
2018-03-06T02:25:50.178Z,95613.19
2018-03-06T02:28:17.863Z,95615.78
2018-03-06T02:30:45.574Z,95608.72
2018-03-06T02:33:13.443Z,95614.46
2018-03-06T02:35:41.099Z,95613.19
2018-03-06T02:38:08.772Z,95614.80
2018-03-06T02:40:36.513Z,95615.73
2018-03-06T02:43:04.103Z,95611.00
2018-03-06T02:45:31.778Z,95607.11
2018-03-06T02:47:59.773Z,95613.33
2018-03-06T02:50:28.158Z,95609.82
2018-03-06T02:52:55.889Z,95606.12
2018-03-06T02:55:23.560Z,95599.02
2018-03-06T02:57:51.131Z,95597.19
2018-03-06T03:00:18.877Z,95604.59
2018-03-06T03:02:46.430Z,95602.15
2018-03-06T03:05:14.323Z,95596.88
2018-03-06T03:07:42.130Z,95597.41
2018-03-06T03:10:09.755Z,95603.63
2018-03-06T03:12:37.704Z,95596.86
2018-03-06T03:15:05.296Z,95597.33
2018-03-06T03:17:32.954Z,95600.44
2018-03-06T03:20:00.774Z,95595.43
2018-03-06T03:22:28.353Z,95596.92
2018-03-06T03:24:56.432Z,95593.09
2018-03-06T03:27:24.013Z,95601.31
2018-03-06T03:29:51.762Z,95593.51
2018-03-06T03:32:19.478Z,95594.39
2018-03-06T03:34:47.277Z,95598.79
2018-03-06T03:37:16.271Z,95597.80
2018-03-06T03:39:44.014Z,95594.03
2018-03-06T03:42:12.679Z,95594.27
2018-03-06T03:44:40.247Z,95596.50
2018-03-06T03:47:08.059Z,95596.07
2018-03-06T03:49:35.766Z,95593.82
2018-03-06T03:52:03.675Z,95588.50
2018-03-06T03:54:31.249Z,95592.31
2018-03-06T03:56:58.869Z,95589.67
2018-03-06T03:59:26.558Z,95593.81
2018-03-06T04:01:54.319Z,95585.91
2018-03-06T04:04:22.558Z,95590.23
2018-03-06T04:06:50.148Z,95588.23
2018-03-06T04:09:17.924Z,95593.88
2018-03-06T04:11:45.561Z,95597.55
2018-03-06T04:14:13.423Z,95598.55
2018-03-06T04:16:41.239Z,95597.06
2018-03-06T04:19:08.849Z,95594.27
2018-03-06T04:21:36.588Z,95592.69
2018-03-06T04:24:04.204Z,95593.38
2018-03-06T04:26:31.840Z,95589.81
2018-03-06T04:28:59.417Z,95588.97
2018-03-06T04:31:26.997Z,95587.33
2018-03-06T04:33:54.978Z,95585.66
2018-03-06T04:36:22.840Z,95581.56
2018-03-06T04:38:50.709Z,95577.84
2018-03-06T04:41:18.339Z,95579.85
2018-03-06T04:43:46.029Z,95571.49
2018-03-06T04:46:13.934Z,95574.75
2018-03-06T04:48:41.702Z,95580.71
2018-03-06T04:51:09.428Z,95574.59
2018-03-06T04:53:37.329Z,95573.55
2018-03-06T04:56:04.985Z,95575.48
2018-03-06T04:58:32.552Z,95575.68
2018-03-06T05:01:00.178Z,95571.27
2018-03-06T05:03:28.144Z,95577.92
2018-03-06T05:05:55.762Z,95574.28
2018-03-06T05:08:23.327Z,95576.72
2018-03-06T05:10:50.964Z,95577.60
2018-03-06T05:13:18.617Z,95580.07
2018-03-06T05:15:46.842Z,95576.32
2018-03-06T05:18:14.447Z,95582.00
2018-03-06T05:20:42.189Z,95576.66
2018-03-06T05:23:09.908Z,95572.48
2018-03-06T05:25:37.609Z,95575.15
2018-03-06T05:28:05.152Z,95571.03
2018-03-06T05:30:32.804Z,95570.45
2018-03-06T05:33:00.365Z,95568.83
2018-03-06T05:35:27.950Z,95576.32
2018-03-06T05:37:55.806Z,95567.68
2018-03-06T05:40:24.404Z,95573.78
2018-03-06T05:42:51.990Z,95574.64
2018-03-06T05:45:19.949Z,95581.77
2018-03-06T05:47:47.747Z,95577.77
2018-03-06T05:50:15.402Z,95581.31
2018-03-06T05:52:43.109Z,95576.42
2018-03-06T05:55:10.675Z,95579.92
2018-03-06T05:57:38.234Z,95579.58
2018-03-06T06:00:05.809Z,95578.26
2018-03-06T06:02:33.476Z,95582.52
2018-03-06T06:05:01.171Z,95578.55
2018-03-06T06:07:28.952Z,95582.80
2018-03-06T06:09:56.699Z,95578.48
2018-03-06T06:12:24.409Z,95579.32
2018-03-06T06:14:52.004Z,95576.37
2018-03-06T06:17:20.862Z,95587.25
2018-03-06T06:19:48.543Z,95584.16
2018-03-06T06:22:16.334Z,95577.56
2018-03-06T06:24:44.217Z,95579.81
2018-03-06T06:27:12.782Z,95585.41
2018-03-06T06:29:40.472Z,95587.31
2018-03-06T06:32:08.167Z,95586.72
2018-03-06T06:34:35.814Z,95587.40
2018-03-06T06:37:03.529Z,95584.16
2018-03-06T06:39:31.093Z,95580.17
2018-03-06T06:41:58.762Z,95586.94
2018-03-06T06:44:26.398Z,95583.20
2018-03-06T06:46:53.918Z,95583.11
2018-03-06T06:49:21.618Z,95582.50
2018-03-06T06:51:49.509Z,95586.98
2018-03-06T06:54:17.293Z,95584.62
2018-03-06T06:56:44.844Z,95588.23
2018-03-06T06:59:12.561Z,95588.80
2018-03-06T07:01:40.457Z,95583.98
2018-03-06T07:04:08.188Z,95585.62
2018-03-06T07:06:36.069Z,95588.17
2018-03-06T07:09:03.707Z,95595.30
2018-03-06T07:11:31.448Z,95588.31
2018-03-06T07:13:59.167Z,95592.40
2018-03-06T07:16:26.758Z,95595.42
2018-03-06T07:18:54.537Z,95593.64
2018-03-06T07:21:22.205Z,95594.36
2018-03-06T07:23:49.867Z,95594.27
2018-03-06T07:26:17.512Z,95592.80
2018-03-06T07:28:45.342Z,95596.88
2018-03-06T07:31:12.884Z,95599.89
2018-03-06T07:33:40.534Z,95602.56
2018-03-06T07:36:08.320Z,95597.81
2018-03-06T07:38:36.018Z,95592.90
2018-03-06T07:41:03.783Z,95597.35
2018-03-06T07:43:31.368Z,95595.27
2018-03-06T07:45:58.897Z,95596.66
2018-03-06T07:48:26.554Z,95597.95
2018-03-06T07:50:54.315Z,95603.41
2018-03-06T07:53:21.993Z,95599.29
2018-03-06T07:55:49.509Z,95596.63
2018-03-06T07:58:17.419Z,95598.81
2018-03-06T08:00:45.151Z,95600.99
2018-03-06T08:03:13.978Z,95596.72
2018-03-06T08:05:41.535Z,95598.94
2018-03-06T08:08:09.272Z,95599.94
2018-03-06T08:10:36.866Z,95596.48
2018-03-06T08:13:04.552Z,95591.06
2018-03-06T08:15:32.213Z,95589.21
2018-03-06T08:17:59.790Z,95594.64
2018-03-06T08:20:27.542Z,95592.30
2018-03-06T08:22:55.088Z,95596.19
2018-03-06T08:25:22.728Z,95591.55
2018-03-06T08:27:50.572Z,95593.51
2018-03-06T08:30:18.584Z,95591.81
2018-03-06T08:32:46.433Z,95588.81
2018-03-06T08:35:14.049Z,95593.09
2018-03-06T08:37:41.982Z,95588.00
2018-03-06T08:40:10.229Z,95585.76
2018-03-06T08:42:38.102Z,95583.92
2018-03-06T08:45:05.752Z,95591.74
2018-03-06T08:47:33.633Z,95588.20
2018-03-06T08:50:01.345Z,95585.72
2018-03-06T08:52:29.185Z,95587.70
2018-03-06T08:54:56.823Z,95592.89
2018-03-06T08:57:24.624Z,95584.14
2018-03-06T08:59:53.248Z,95582.70
2018-03-06T09:02:20.849Z,95587.12
2018-03-06T09:04:49.252Z,95584.99
2018-03-06T09:07:17.038Z,95586.17
2018-03-06T09:09:44.793Z,95585.16
2018-03-06T09:12:12.473Z,95582.59
2018-03-06T09:14:40.683Z,95583.58
2018-03-06T09:17:08.258Z,95581.25
2018-03-06T09:19:36.108Z,95585.31
2018-03-06T09:22:04.274Z,95585.77
2018-03-06T09:24:32.698Z,95581.06
2018-03-06T09:27:00.314Z,95574.86
2018-03-06T09:29:27.859Z,95579.23
2018-03-06T09:31:55.525Z,95587.63
2018-03-06T09:34:23.079Z,95588.87
2018-03-06T09:36:50.654Z,95580.91
2018-03-06T09:39:18.286Z,95589.26
2018-03-06T09:41:45.889Z,95590.42
2018-03-06T09:44:13.603Z,95588.31
2018-03-06T09:46:41.259Z,95588.53
2018-03-06T09:49:09.625Z,95587.58
2018-03-06T09:51:37.263Z,95589.20
2018-03-06T09:54:04.819Z,95594.36
2018-03-06T09:56:32.484Z,95593.24
2018-03-06T09:59:00.173Z,95585.95
2018-03-06T10:01:28.339Z,95588.81
2018-03-06T10:03:55.962Z,95590.38
2018-03-06T10:06:23.793Z,95584.41
2018-03-06T10:08:51.342Z,95578.63
2018-03-06T10:11:18.882Z,95587.91
2018-03-06T10:13:47.033Z,95587.05
2018-03-06T10:16:14.610Z,95596.59
2018-03-06T10:18:42.202Z,95587.19
2018-03-06T10:21:09.753Z,95595.40
2018-03-06T10:23:37.414Z,95589.19
2018-03-06T10:26:06.083Z,95589.55
2018-03-06T10:28:33.830Z,95592.36
2018-03-06T10:31:01.547Z,95597.16
2018-03-06T10:33:29.097Z,95584.33
2018-03-06T10:35:57.037Z,95590.20
2018-03-06T10:38:25.412Z,95591.23
2018-03-06T10:40:53.031Z,95589.66
2018-03-06T10:43:20.638Z,95592.56
2018-03-06T10:45:48.559Z,95592.55
2018-03-06T10:48:16.372Z,95590.20
2018-03-06T10:50:44.190Z,95602.33
2018-03-06T10:53:11.832Z,95604.50
2018-03-06T10:55:39.598Z,95595.16
2018-03-06T10:58:07.163Z,95584.28
2018-03-06T11:00:47.888Z,95590.38
2018-03-06T11:03:22.282Z,95594.45
2018-03-06T11:05:49.970Z,95589.99
2018-03-06T11:08:18.371Z,95590.59
2018-03-06T11:10:46.079Z,95588.27
2018-03-06T11:13:13.662Z,95587.18
2018-03-06T11:15:41.413Z,95589.09
2018-03-06T11:18:09.393Z,95588.52
2018-03-06T11:20:37.059Z,95588.92
2018-03-06T11:23:04.778Z,95579.05
2018-03-06T11:25:32.626Z,95577.75
2018-03-06T11:28:00.284Z,95577.15
2018-03-06T11:30:28.935Z,95576.12
2018-03-06T11:32:56.710Z,95573.58
2018-03-06T11:35:24.614Z,95578.55
2018-03-06T11:37:52.364Z,95569.66
2018-03-06T11:40:20.024Z,95572.55
2018-03-06T11:42:47.773Z,95566.77
2018-03-06T11:45:15.630Z,95564.32
2018-03-06T11:47:43.244Z,95566.98
2018-03-06T11:50:11.039Z,95571.41
2018-03-06T11:52:38.630Z,95562.52
2018-03-06T11:55:06.329Z,95564.84
2018-03-06T11:57:33.907Z,95564.55
2018-03-06T12:00:01.556Z,95558.61
2018-03-06T12:02:29.458Z,95564.58
2018-03-06T12:04:57.285Z,95557.26
2018-03-06T12:07:24.988Z,95565.18
2018-03-06T12:09:52.620Z,95557.67
2018-03-06T12:12:20.181Z,95552.03
2018-03-06T12:14:47.788Z,95546.59
2018-03-06T12:17:15.443Z,95541.09
2018-03-06T12:19:43.039Z,95539.83
2018-03-06T12:22:10.808Z,95537.80
2018-03-06T12:24:38.474Z,95539.44
2018-03-06T12:27:06.171Z,95539.22
2018-03-06T12:29:34.651Z,95541.75
2018-03-06T12:32:02.402Z,95533.95
2018-03-06T12:34:30.004Z,95537.52
2018-03-06T12:36:57.718Z,95539.23
2018-03-06T12:39:25.774Z,95534.16
2018-03-06T12:41:53.597Z,95529.35
2018-03-06T12:44:21.299Z,95531.75
2018-03-06T12:46:48.854Z,95537.19
2018-03-06T12:49:16.867Z,95538.00
2018-03-06T12:51:44.719Z,95538.49
2018-03-06T12:54:13.547Z,95537.09
2018-03-06T12:56:41.439Z,95539.12
2018-03-06T12:59:09.761Z,95530.13
2018-03-06T13:01:37.605Z,95527.72
2018-03-06T13:04:05.240Z,95521.98
2018-03-06T13:06:33.253Z,95522.48
2018-03-06T13:09:01.059Z,95518.52
2018-03-06T13:11:28.781Z,95515.58
2018-03-06T13:13:56.479Z,95507.17
2018-03-06T13:16:24.168Z,95513.30
2018-03-06T13:18:51.840Z,95506.92
2018-03-06T13:21:19.443Z,95506.01
2018-03-06T13:23:47.063Z,95507.45
2018-03-06T13:26:14.636Z,95504.16
2018-03-06T13:28:42.292Z,95511.73
2018-03-06T13:31:10.883Z,95506.09
2018-03-06T13:33:38.878Z,95513.46
2018-03-06T13:36:06.590Z,95511.94
2018-03-06T13:38:34.619Z,95519.08
2018-03-06T13:41:02.373Z,95513.30
2018-03-06T13:43:30.324Z,95510.85
2018-03-06T13:45:57.927Z,95517.61
2018-03-06T13:48:25.668Z,95513.44
2018-03-06T13:50:54.327Z,95524.44
2018-03-06T13:53:22.590Z,95515.13
2018-03-06T13:55:50.283Z,95518.59
2018-03-06T13:58:18.133Z,95521.38
2018-03-06T14:00:45.702Z,95519.93
2018-03-06T14:03:13.418Z,95518.67
2018-03-06T14:05:41.340Z,95512.86
2018-03-06T14:08:08.964Z,95511.98
2018-03-06T14:10:37.510Z,95502.88
2018-03-06T14:13:05.183Z,95506.71
2018-03-06T14:15:33.267Z,95501.27
2018-03-06T14:18:01.758Z,95505.61
2018-03-06T14:20:29.499Z,95516.31
2018-03-06T14:22:57.102Z,95512.72
2018-03-06T14:25:24.781Z,95504.54
2018-03-06T14:27:52.466Z,95509.69
2018-03-06T14:30:20.268Z,95504.28
2018-03-06T14:32:47.999Z,95503.06
2018-03-06T14:35:15.708Z,95508.91
2018-03-06T14:37:43.503Z,95504.98
2018-03-06T14:40:11.172Z,95503.21
2018-03-06T14:42:38.783Z,95502.55
2018-03-06T14:45:06.429Z,95507.91
2018-03-06T14:47:34.103Z,95512.40
2018-03-06T14:50:02.407Z,95507.37
2018-03-06T14:52:30.029Z,95515.66
2018-03-06T14:54:58.020Z,95508.80
2018-03-06T14:57:25.678Z,95513.55
2018-03-06T14:59:53.230Z,95510.98
2018-03-06T15:02:20.775Z,95511.16
2018-03-06T15:04:48.384Z,95515.38
2018-03-06T15:07:16.050Z,95520.05
2018-03-06T15:09:43.598Z,95512.85
2018-03-06T15:12:12.127Z,95515.66
2018-03-06T15:14:39.689Z,95517.69
2018-03-06T15:17:07.368Z,95511.83
2018-03-06T15:19:35.139Z,95517.74
2018-03-06T15:22:02.678Z,95517.66
2018-03-06T15:24:36.252Z,95528.01
2018-03-06T15:27:03.812Z,95520.39
2018-03-06T15:29:31.530Z,95519.95
2018-03-06T15:31:59.252Z,95521.23
2018-03-06T15:34:27.070Z,95518.73
2018-03-06T15:36:55.704Z,95514.43
2018-03-06T15:39:23.289Z,95524.87
2018-03-06T15:41:51.004Z,95525.13
2018-03-06T15:44:18.684Z,95529.51
2018-03-06T15:46:46.338Z,95528.50
2018-03-06T15:49:14.409Z,95528.06
2018-03-06T15:51:42.250Z,95529.63
2018-03-06T15:54:10.013Z,95531.31
2018-03-06T15:56:37.814Z,95541.55
2018-03-06T15:59:05.708Z,95541.81
2018-03-06T16:01:33.423Z,95540.14
2018-03-06T16:04:01.709Z,95545.21
2018-03-06T16:06:29.354Z,95550.09
2018-03-06T16:08:56.984Z,95549.41
2018-03-06T16:11:24.670Z,95554.76
2018-03-06T16:13:52.288Z,95561.30
2018-03-06T16:16:20.103Z,95561.66
2018-03-06T16:18:47.863Z,95563.66
2018-03-06T16:21:15.560Z,95565.44
2018-03-06T16:23:43.529Z,95571.80
2018-03-06T16:26:11.290Z,95568.20
2018-03-06T16:28:39.433Z,95570.23
2018-03-06T16:31:07.064Z,95570.37
2018-03-06T16:33:34.711Z,95576.51
2018-03-06T16:36:02.409Z,95578.09
2018-03-06T16:38:30.384Z,95573.09
2018-03-06T16:40:58.187Z,95574.55
2018-03-06T16:43:25.884Z,95588.11
2018-03-06T16:45:53.593Z,95588.52
2018-03-06T16:48:21.353Z,95586.31
2018-03-06T16:50:49.048Z,95592.41
2018-03-06T16:53:16.724Z,95590.02
2018-03-06T16:55:44.404Z,95597.77
2018-03-06T16:58:13.039Z,95606.16
2018-03-06T17:00:40.651Z,95606.73
2018-03-06T17:03:08.258Z,95602.81
2018-03-06T17:05:35.849Z,95612.21
2018-03-06T17:08:03.427Z,95606.73
2018-03-06T17:10:31.144Z,95613.67
2018-03-06T17:12:59.117Z,95621.31
2018-03-06T17:15:26.808Z,95615.38
2018-03-06T17:17:55.563Z,95614.98
2018-03-06T17:20:23.285Z,95625.06
2018-03-06T17:22:51.053Z,95632.44
2018-03-06T17:25:18.669Z,95617.19
2018-03-06T17:27:46.380Z,95625.37
2018-03-06T17:30:14.145Z,95628.75
2018-03-06T17:32:41.799Z,95626.19
2018-03-06T17:35:09.671Z,95632.20
2018-03-06T17:37:37.505Z,95634.22
2018-03-06T17:40:05.313Z,95639.86
2018-03-06T17:42:33.185Z,95639.04
2018-03-06T17:45:01.555Z,95647.95
2018-03-06T17:47:29.127Z,95643.06
2018-03-06T17:49:57.230Z,95642.55
2018-03-06T17:52:25.173Z,95645.55
2018-03-06T17:54:52.747Z,95653.52
2018-03-06T17:57:20.341Z,95658.23
2018-03-06T17:59:48.038Z,95661.22
2018-03-06T18:02:15.928Z,95669.32
2018-03-06T18:04:43.504Z,95677.39
2018-03-06T18:07:11.310Z,95682.48
2018-03-06T18:09:38.984Z,95684.16
2018-03-06T18:12:06.680Z,95685.27
2018-03-06T18:14:34.384Z,95688.70
2018-03-06T18:17:02.090Z,95689.70
2018-03-06T18:19:29.774Z,95684.86
2018-03-06T18:21:57.594Z,95682.16
2018-03-06T18:24:25.260Z,95685.28
2018-03-06T18:26:52.860Z,95690.97
2018-03-06T18:29:21.297Z,95696.53
2018-03-06T18:31:49.040Z,95699.84
2018-03-06T18:34:17.300Z,95702.10
2018-03-06T18:36:44.970Z,95694.97
2018-03-06T18:39:12.660Z,95701.73
2018-03-06T18:41:40.430Z,95698.59
2018-03-06T18:44:08.082Z,95698.42
2018-03-06T18:46:35.988Z,95705.05
2018-03-06T18:49:03.724Z,95698.92
2018-03-06T18:51:31.511Z,95706.69
2018-03-06T18:53:59.106Z,95701.32
2018-03-06T18:56:26.729Z,95697.92
2018-03-06T18:58:54.505Z,95698.83
2018-03-06T19:04:49.429Z,95704.59
2018-03-06T19:07:17.184Z,95702.61
2018-03-06T19:09:44.817Z,95712.11
2018-03-06T19:12:12.517Z,95704.11
2018-03-06T19:14:40.173Z,95696.13
2018-03-06T19:17:07.828Z,95705.94
2018-03-06T19:19:35.697Z,95708.04
2018-03-06T19:22:04.312Z,95710.29
2018-03-06T19:24:31.970Z,95709.97
2018-03-06T19:26:59.572Z,95704.44
2018-03-06T19:29:27.354Z,95703.56
2018-03-06T19:31:55.052Z,95705.68
2018-03-06T19:34:22.702Z,95717.34
2018-03-06T19:36:50.445Z,95710.98
2018-03-06T19:39:18.205Z,95720.19
2018-03-06T19:41:45.792Z,95727.31
2018-03-06T19:44:13.640Z,95724.28
2018-03-06T19:46:41.729Z,95728.45
2018-03-06T19:49:09.359Z,95725.22
2018-03-06T19:51:37.067Z,95724.17
2018-03-06T19:54:04.759Z,95725.64
2018-03-06T19:56:32.527Z,95732.65
2018-03-06T19:59:00.132Z,95733.23
2018-03-06T20:01:28.472Z,95732.92
2018-03-06T20:03:56.169Z,95733.96
2018-03-06T20:06:23.789Z,95735.72
2018-03-06T20:08:51.644Z,95742.69
2018-03-06T20:11:19.354Z,95750.67
2018-03-06T20:13:46.955Z,95752.38
2018-03-06T20:16:14.848Z,95743.00
2018-03-06T20:18:42.650Z,95739.66
2018-03-06T20:21:10.223Z,95749.45
2018-03-06T20:23:37.948Z,95754.77
2018-03-06T20:26:05.513Z,95744.84
2018-03-06T20:28:33.093Z,95755.45
2018-03-06T20:31:06.633Z,95757.48
2018-03-06T20:33:34.193Z,95758.16
2018-03-06T20:36:01.903Z,95751.84
2018-03-06T20:38:35.252Z,95756.92
2018-03-06T20:41:03.028Z,95754.27
2018-03-06T20:43:30.949Z,95755.36
2018-03-06T20:46:04.270Z,95764.36
2018-03-06T20:48:31.885Z,95758.88
2018-03-06T20:50:59.553Z,95764.21
2018-03-06T20:53:32.828Z,95770.03
2018-03-06T20:56:00.412Z,95763.20
2018-03-06T20:58:28.079Z,95758.70
2018-03-06T21:00:55.614Z,95762.56
2018-03-06T21:03:23.363Z,95763.87
2018-03-06T21:05:51.692Z,95764.65
2018-03-06T21:08:19.654Z,95765.06
2018-03-06T21:10:47.255Z,95763.80
2018-03-06T21:13:15.153Z,95773.38
2018-03-06T21:15:42.895Z,95775.66
2018-03-06T21:18:10.461Z,95774.55
2018-03-06T21:20:38.161Z,95772.96
2018-03-06T21:23:05.728Z,95778.16
2018-03-06T21:25:34.210Z,95777.15
2018-03-06T21:28:01.927Z,95773.83
2018-03-06T21:30:29.569Z,95772.29
2018-03-06T21:32:57.104Z,95771.55
2018-03-06T21:35:25.513Z,95778.31
2018-03-06T21:37:53.288Z,95778.67
2018-03-06T21:40:20.838Z,95777.34
2018-03-06T21:42:48.423Z,95773.09
2018-03-06T21:45:16.141Z,95773.60
2018-03-06T21:47:43.757Z,95784.03
2018-03-06T21:50:11.489Z,95780.63
2018-03-06T21:52:39.173Z,95786.13
2018-03-06T21:55:06.722Z,95792.20
2018-03-06T21:57:34.373Z,95787.27
2018-03-06T22:00:02.009Z,95791.86
2018-03-06T22:02:29.582Z,95791.66
2018-03-06T22:04:57.177Z,95792.95
2018-03-06T22:07:24.815Z,95792.21
2018-03-06T22:09:52.613Z,95792.09
2018-03-06T22:12:20.287Z,95796.95
2018-03-06T22:14:48.068Z,95792.75
2018-03-06T22:17:15.661Z,95802.07
2018-03-06T22:19:43.328Z,95793.64
2018-03-06T22:22:11.127Z,95796.31
2018-03-06T22:24:38.752Z,95793.86
2018-03-06T22:27:06.441Z,95794.89
2018-03-06T22:29:34.165Z,95791.59
2018-03-06T22:32:02.605Z,95803.69
2018-03-06T22:34:30.169Z,95799.70
2018-03-06T22:36:57.825Z,95801.98
2018-03-06T22:39:25.509Z,95809.77
2018-03-06T22:41:53.042Z,95813.44
2018-03-06T22:44:20.627Z,95811.28
2018-03-06T22:46:48.182Z,95814.69
2018-03-06T22:49:15.883Z,95823.09
2018-03-06T22:51:43.430Z,95819.30
2018-03-06T22:54:11.024Z,95821.74
2018-03-06T22:56:38.943Z,95820.72
2018-03-06T22:59:06.563Z,95818.76
2018-03-06T23:01:34.138Z,95820.72
2018-03-06T23:04:01.937Z,95823.52
2018-03-06T23:06:29.517Z,95822.45
2018-03-06T23:08:57.066Z,95822.25
2018-03-06T23:11:24.812Z,95822.50
2018-03-06T23:13:52.473Z,95817.80
2018-03-06T23:16:20.049Z,95819.39
2018-03-06T23:18:47.628Z,95817.88
2018-03-06T23:21:15.251Z,95813.81
2018-03-06T23:23:42.826Z,95819.17
2018-03-06T23:26:10.668Z,95822.08
2018-03-06T23:28:38.260Z,95822.64
2018-03-06T23:31:05.942Z,95823.63
2018-03-06T23:33:33.492Z,95825.27
2018-03-06T23:36:01.053Z,95820.70
2018-03-06T23:38:28.749Z,95828.06
2018-03-06T23:40:56.308Z,95827.17
2018-03-06T23:43:23.889Z,95823.18
2018-03-06T23:45:51.475Z,95818.92
2018-03-06T23:48:19.409Z,95820.66
2018-03-06T23:50:47.067Z,95821.83
2018-03-06T23:53:14.599Z,95829.13
2018-03-06T23:55:42.298Z,95826.75
2018-03-06T23:58:09.853Z,95830.25
